createdAt,value
2022-10-13T00:00:31.448Z,9.10
2022-10-13T00:03:18.920Z,9.10
2022-10-13T00:06:07.676Z,9.20
2022-10-13T00:08:55.799Z,9.20
2022-10-13T00:11:42.639Z,9.30
2022-10-13T00:14:30.133Z,9.30
2022-10-13T00:17:16.952Z,9.30
2022-10-13T00:20:04.971Z,9.40
2022-10-13T00:22:51.876Z,9.40
2022-10-13T00:25:41.812Z,9.40
2022-10-13T00:28:28.767Z,9.50
2022-10-13T00:31:18.958Z,9.50
2022-10-13T00:34:05.777Z,9.50
2022-10-13T00:36:52.608Z,9.50
2022-10-13T00:39:39.577Z,9.50
2022-10-13T00:42:26.412Z,9.50
2022-10-13T00:45:22.465Z,9.50
2022-10-13T00:48:09.973Z,9.50
2022-10-13T00:50:58.110Z,9.40
2022-10-13T00:53:47.106Z,9.50
2022-10-13T00:56:37.277Z,9.40
2022-10-13T00:59:28.282Z,9.50
2022-10-13T01:02:15.767Z,9.50
2022-10-13T01:05:04.642Z,9.60
2022-10-13T01:07:52.898Z,9.60
2022-10-13T01:10:52.140Z,9.60
2022-10-13T01:13:43.209Z,9.70
2022-10-13T01:16:38.974Z,9.80
2022-10-13T01:19:41.463Z,9.80
2022-10-13T01:22:44.706Z,9.80
2022-10-13T01:25:49.826Z,9.90
2022-10-13T01:29:04.827Z,9.80
2022-10-13T01:31:59.835Z,9.90
2022-10-13T01:34:53.133Z,10.50
2022-10-13T01:37:45.266Z,10.00
2022-10-13T01:40:40.038Z,10.10
2022-10-13T01:43:30.470Z,10.10
2022-10-13T01:46:21.515Z,10.10
2022-10-13T01:49:11.431Z,10.10
2022-10-13T01:52:02.419Z,10.10
2022-10-13T01:54:51.263Z,10.20
2022-10-13T01:57:40.903Z,10.20
2022-10-13T02:00:34.475Z,10.20
2022-10-13T02:03:26.871Z,10.90
2022-10-13T02:06:21.067Z,10.20
2022-10-13T02:09:13.291Z,10.20
2022-10-13T02:12:06.831Z,10.20
2022-10-13T02:14:56.669Z,10.20
2022-10-13T02:17:43.532Z,10.20
2022-10-13T02:20:31.399Z,10.30
2022-10-13T02:23:19.175Z,10.30
2022-10-13T02:26:06.071Z,10.30
2022-10-13T02:28:52.982Z,10.40
2022-10-13T02:31:40.892Z,10.40
2022-10-13T02:34:27.996Z,10.40
2022-10-13T02:37:14.827Z,10.50
2022-10-13T02:40:02.507Z,10.50
2022-10-13T02:42:49.535Z,10.50
2022-10-13T02:45:36.404Z,10.50
2022-10-13T02:48:23.244Z,10.50
2022-10-13T02:51:10.084Z,10.50
2022-10-13T02:53:56.928Z,10.50
2022-10-13T02:56:44.400Z,10.50
2022-10-13T02:59:31.240Z,10.50
2022-10-13T03:02:19.024Z,10.50
2022-10-13T03:05:06.717Z,10.50
2022-10-13T03:07:53.552Z,10.40
2022-10-13T03:10:40.378Z,10.50
2022-10-13T03:13:28.053Z,10.40
2022-10-13T03:16:23.213Z,10.40
2022-10-13T03:19:10.137Z,10.40
2022-10-13T03:21:56.981Z,10.40
2022-10-13T03:24:43.815Z,10.30
2022-10-13T03:27:30.746Z,10.40
2022-10-13T03:30:18.377Z,10.30
2022-10-13T03:33:05.266Z,10.30
2022-10-13T03:35:52.086Z,10.30
2022-10-13T03:38:39.662Z,10.30
2022-10-13T03:41:28.170Z,10.30
2022-10-13T03:44:15.342Z,10.30
2022-10-13T03:47:02.826Z,10.30
2022-10-13T03:49:49.692Z,10.50
2022-10-13T03:52:36.590Z,10.20
2022-10-13T03:55:23.998Z,10.20
2022-10-13T03:58:10.810Z,10.20
2022-10-13T04:01:03.922Z,10.20
2022-10-13T04:03:53.055Z,10.10
2022-10-13T04:06:39.912Z,10.10
2022-10-13T04:09:26.930Z,10.10
2022-10-13T04:12:17.165Z,10.20
2022-10-13T04:15:08.782Z,10.20
2022-10-13T04:17:55.647Z,10.20
2022-10-13T04:20:43.128Z,10.20
2022-10-13T04:23:29.946Z,10.20
2022-10-13T04:26:18.751Z,10.20
2022-10-13T04:29:07.307Z,10.20
2022-10-13T04:31:54.672Z,10.20
2022-10-13T04:34:41.523Z,10.20
2022-10-13T04:37:29.052Z,10.20
2022-10-13T04:40:16.228Z,10.20
2022-10-13T04:43:03.092Z,10.20
2022-10-13T04:45:49.924Z,10.30
2022-10-13T04:48:36.768Z,10.20
2022-10-13T04:51:25.225Z,10.30
2022-10-13T04:54:13.573Z,10.30
2022-10-13T04:57:00.440Z,10.30
2022-10-13T04:59:47.323Z,10.30
2022-10-13T05:02:34.983Z,10.30
2022-10-13T05:05:23.426Z,10.30
2022-10-13T05:08:10.286Z,10.30
2022-10-13T05:11:00.628Z,10.20
2022-10-13T05:13:48.100Z,10.30
2022-10-13T05:16:34.932Z,10.30
2022-10-13T05:19:21.785Z,10.30
2022-10-13T05:22:09.297Z,10.30
2022-10-13T05:24:56.125Z,10.20
2022-10-13T05:27:44.370Z,10.20
2022-10-13T05:30:31.745Z,10.20
2022-10-13T05:33:20.853Z,10.20
2022-10-13T05:36:10.089Z,10.10
2022-10-13T05:38:59.261Z,10.10
2022-10-13T05:41:46.318Z,10.10
2022-10-13T05:44:41.217Z,10.10
2022-10-13T05:47:28.058Z,10.10
2022-10-13T05:50:16.204Z,10.10
2022-10-13T05:53:03.202Z,10.10
2022-10-13T05:55:50.793Z,10.10
2022-10-13T05:58:42.923Z,10.10
2022-10-13T06:01:33.671Z,10.10
2022-10-13T06:04:25.694Z,10.20
2022-10-13T06:07:12.918Z,10.10
2022-10-13T06:10:01.478Z,10.10
2022-10-13T06:12:48.342Z,10.10
2022-10-13T06:15:35.262Z,10.20
2022-10-13T06:18:23.030Z,10.10
2022-10-13T06:21:09.998Z,10.10
2022-10-13T06:23:56.799Z,10.20
2022-10-13T06:26:43.660Z,10.20
2022-10-13T06:29:32.097Z,10.20
2022-10-13T06:32:19.334Z,10.20
2022-10-13T06:35:08.085Z,10.30
2022-10-13T06:37:56.266Z,10.30
2022-10-13T06:40:43.301Z,10.40
2022-10-13T06:43:38.646Z,10.40
2022-10-13T06:46:29.486Z,10.50
2022-10-13T06:49:16.560Z,10.60
2022-10-13T06:52:04.266Z,10.60
2022-10-13T06:54:51.201Z,10.60
2022-10-13T06:57:38.061Z,10.70
2022-10-13T07:00:26.611Z,10.70
2022-10-13T07:03:13.485Z,10.80
2022-10-13T07:06:01.476Z,10.90
2022-10-13T07:08:49.176Z,11.00
2022-10-13T07:11:36.283Z,11.20
2022-10-13T07:14:23.165Z,11.30
2022-10-13T07:17:10.416Z,11.50
2022-10-13T07:19:58.036Z,11.70
2022-10-13T07:22:46.680Z,11.70
2022-10-13T07:25:34.912Z,11.80
2022-10-13T07:28:21.909Z,11.90
2022-10-13T07:31:12.838Z,11.90
2022-10-13T07:34:00.918Z,12.00
2022-10-13T07:36:48.601Z,12.00
2022-10-13T07:39:35.453Z,12.10
2022-10-13T07:42:23.011Z,12.00
2022-10-13T07:45:10.410Z,12.00
2022-10-13T07:47:57.239Z,12.00
2022-10-13T07:50:44.064Z,12.10
2022-10-13T07:53:30.883Z,12.00
2022-10-13T07:56:17.761Z,12.00
2022-10-13T07:59:05.238Z,12.10
2022-10-13T08:01:52.095Z,12.00
2022-10-13T08:04:38.961Z,12.10
2022-10-13T08:07:25.818Z,12.10
2022-10-13T08:10:12.919Z,12.10
2022-10-13T08:12:59.762Z,12.10
2022-10-13T08:15:47.293Z,12.20
2022-10-13T08:18:34.209Z,12.20
2022-10-13T08:21:53.211Z,12.20
2022-10-13T08:24:28.733Z,12.20
2022-10-13T08:27:20.148Z,12.60
2022-10-13T08:30:08.909Z,12.20
2022-10-13T08:32:57.308Z,12.20
2022-10-13T08:35:44.277Z,12.20
2022-10-13T08:38:31.172Z,12.30
2022-10-13T08:41:20.684Z,12.30
2022-10-13T08:47:39.674Z,12.40
2022-10-13T08:50:30.998Z,12.50
2022-10-13T08:53:25.069Z,12.50
2022-10-13T08:56:18.231Z,12.60
2022-10-13T08:59:10.218Z,12.60
2022-10-13T09:01:57.482Z,12.70
2022-10-13T09:04:49.983Z,12.90
2022-10-13T09:07:38.936Z,13.00
2022-10-13T09:10:25.899Z,13.20
2022-10-13T09:13:12.760Z,13.40
2022-10-13T09:15:59.675Z,13.40
2022-10-13T09:18:46.500Z,13.70
2022-10-13T09:21:36.016Z,13.70
2022-10-13T09:24:25.770Z,13.90
2022-10-13T09:27:15.812Z,14.00
2022-10-13T09:30:31.407Z,14.20
2022-10-13T09:33:23.656Z,14.20
2022-10-13T09:36:12.588Z,14.40
2022-10-13T09:39:10.857Z,14.40
2022-10-13T09:42:22.741Z,14.50
2022-10-13T09:45:14.574Z,14.40
2022-10-13T09:48:04.703Z,14.40
2022-10-13T09:50:53.239Z,14.40
2022-10-13T09:53:45.698Z,14.30
2022-10-13T09:56:37.827Z,14.30
2022-10-13T09:59:32.454Z,14.30
2022-10-13T10:02:31.322Z,14.40
2022-10-13T10:05:24.233Z,14.50
2022-10-13T10:08:22.561Z,14.60
2022-10-13T10:11:18.943Z,14.70
2022-10-13T10:14:15.243Z,14.80
2022-10-13T10:17:12.262Z,14.90
2022-10-13T10:20:11.296Z,15.00
2022-10-13T10:23:05.223Z,15.20
2022-10-13T10:25:57.820Z,15.30
2022-10-13T10:29:01.539Z,15.50
2022-10-13T10:32:08.342Z,15.60
2022-10-13T10:35:01.508Z,15.70
2022-10-13T10:38:03.201Z,15.80
2022-10-13T10:40:58.908Z,15.80
2022-10-13T10:43:54.584Z,15.80
2022-10-13T10:46:45.982Z,15.90
2022-10-13T10:49:35.581Z,15.80
2022-10-13T10:52:26.994Z,15.90
2022-10-13T10:55:23.373Z,16.00
2022-10-13T10:58:22.826Z,16.10
2022-10-13T11:01:26.719Z,16.00
2022-10-13T11:04:39.389Z,16.00
2022-10-13T11:07:55.304Z,16.00
2022-10-13T11:10:42.162Z,16.00
2022-10-13T11:13:29.006Z,16.00
2022-10-13T11:16:33.725Z,15.90
2022-10-13T11:19:32.418Z,15.90
2022-10-13T11:22:22.155Z,15.90
2022-10-13T11:25:38.708Z,15.90
2022-10-13T11:28:45.432Z,15.80
2022-10-13T11:31:49.820Z,15.80
2022-10-13T11:34:36.811Z,15.70
2022-10-13T11:37:30.301Z,15.50
2022-10-13T11:40:28.555Z,15.40
2022-10-13T11:43:36.571Z,15.20
2022-10-13T11:46:26.875Z,15.20
2022-10-13T11:49:34.408Z,15.20
2022-10-13T11:52:35.500Z,15.10
2022-10-13T11:55:32.597Z,15.10
2022-10-13T11:58:22.328Z,15.00
2022-10-13T12:01:14.028Z,15.00
2022-10-13T12:04:13.224Z,15.00
2022-10-13T12:07:02.908Z,15.10
2022-10-13T12:09:52.297Z,15.20
2022-10-13T12:12:46.897Z,15.30
2022-10-13T12:15:35.896Z,15.30
2022-10-13T12:18:26.689Z,15.40
2022-10-13T12:21:16.628Z,15.30
2022-10-13T12:24:08.651Z,15.10
2022-10-13T12:26:57.248Z,15.00
2022-10-13T12:29:45.032Z,14.80
2022-10-13T12:32:35.036Z,14.70
2022-10-13T12:35:25.668Z,14.70
2022-10-13T12:38:18.140Z,14.60
2022-10-13T12:41:05.616Z,14.70
2022-10-13T12:43:53.770Z,14.60
2022-10-13T12:46:42.415Z,14.60
2022-10-13T12:49:31.112Z,14.60
2022-10-13T12:52:23.006Z,14.60
2022-10-13T12:55:15.975Z,14.50
2022-10-13T12:58:03.051Z,14.60
2022-10-13T13:01:02.529Z,14.60
2022-10-13T13:03:55.057Z,14.50
2022-10-13T13:06:52.196Z,14.50
2022-10-13T13:09:41.596Z,14.50
2022-10-13T13:12:28.913Z,14.40
2022-10-13T13:15:31.076Z,14.40
2022-10-13T13:18:38.769Z,14.30
2022-10-13T13:21:25.618Z,14.30
2022-10-13T13:24:28.300Z,14.30
2022-10-13T13:27:40.204Z,14.30
2022-10-13T13:30:28.137Z,14.30
2022-10-13T13:33:14.995Z,14.30
2022-10-13T13:36:04.965Z,14.20
2022-10-13T13:38:52.661Z,14.20
2022-10-13T13:41:39.498Z,14.10
2022-10-13T13:44:26.341Z,14.10
2022-10-13T13:47:16.884Z,14.00
2022-10-13T13:50:14.282Z,14.00
2022-10-13T13:53:04.182Z,13.90
2022-10-13T13:55:51.357Z,14.00
2022-10-13T13:58:38.429Z,13.90
2022-10-13T14:01:25.326Z,14.00
2022-10-13T14:04:12.226Z,14.00
2022-10-13T14:06:59.058Z,14.00
2022-10-13T14:09:46.661Z,14.00
2022-10-13T14:12:33.878Z,14.00
2022-10-13T14:15:23.408Z,14.00
2022-10-13T14:18:12.949Z,13.90
2022-10-13T14:20:59.827Z,13.90
2022-10-13T14:23:46.678Z,13.80
2022-10-13T14:26:34.144Z,13.80
2022-10-13T14:29:21.117Z,13.80
2022-10-13T14:32:07.945Z,13.80
2022-10-13T14:34:54.785Z,13.80
2022-10-13T14:37:41.642Z,13.80
2022-10-13T14:40:28.513Z,13.80
2022-10-13T14:43:15.986Z,13.80
2022-10-13T14:46:04.537Z,13.80
2022-10-13T14:48:51.550Z,13.80
2022-10-13T14:51:38.462Z,13.80
2022-10-13T14:54:25.600Z,13.80
2022-10-13T14:57:14.905Z,13.80
2022-10-13T15:00:03.147Z,13.80
2022-10-13T15:02:50.166Z,13.70
2022-10-13T15:05:38.258Z,13.60
2022-10-13T15:08:25.322Z,13.70
2022-10-13T15:11:13.203Z,13.60
2022-10-13T15:14:00.152Z,13.60
2022-10-13T15:16:47.667Z,13.60
2022-10-13T15:19:34.649Z,13.50
2022-10-13T15:22:23.751Z,13.60
2022-10-13T15:25:11.067Z,13.50
2022-10-13T15:27:57.881Z,13.50
2022-10-13T15:30:45.395Z,13.60
2022-10-13T15:33:34.585Z,13.50
2022-10-13T15:36:22.499Z,13.50
2022-10-13T15:39:10.217Z,13.50
2022-10-13T15:41:57.043Z,13.50
2022-10-13T15:47:51.068Z,13.40
2022-10-13T15:50:39.716Z,13.50
2022-10-13T15:53:26.759Z,13.40
2022-10-13T15:56:14.515Z,13.40
2022-10-13T15:59:01.389Z,13.40
2022-10-13T16:01:48.284Z,13.40
2022-10-13T16:04:37.600Z,13.40
2022-10-13T16:07:25.300Z,13.40
2022-10-13T16:10:13.754Z,13.40
2022-10-13T16:13:00.647Z,13.40
2022-10-13T16:15:56.593Z,13.40
2022-10-13T16:18:43.753Z,13.40
2022-10-13T16:21:30.633Z,13.40
2022-10-13T16:24:18.115Z,13.40
2022-10-13T16:27:05.044Z,13.40
2022-10-13T16:29:53.615Z,13.30
2022-10-13T16:32:40.767Z,13.30
2022-10-13T16:35:27.616Z,13.30
2022-10-13T16:38:14.518Z,13.30
2022-10-13T16:41:04.380Z,13.30
2022-10-13T16:43:51.209Z,13.30
2022-10-13T16:46:38.118Z,13.30
2022-10-13T16:49:25.115Z,13.30
2022-10-13T16:52:11.935Z,13.30
2022-10-13T16:54:58.751Z,13.20
2022-10-13T16:57:47.173Z,13.20
2022-10-13T17:00:34.954Z,13.20
2022-10-13T17:03:21.820Z,13.20
2022-10-13T17:06:10.037Z,13.20
2022-10-13T17:08:58.714Z,13.20
2022-10-13T17:11:45.776Z,13.20
2022-10-13T17:14:33.309Z,13.20
2022-10-13T17:17:20.260Z,13.20
2022-10-13T17:20:07.868Z,13.20
2022-10-13T17:22:57.304Z,13.20
2022-10-13T17:25:44.172Z,13.20
2022-10-13T17:28:31.474Z,13.20
2022-10-13T17:31:22.476Z,13.20
2022-10-13T17:34:09.454Z,13.20
2022-10-13T17:36:58.104Z,13.20
2022-10-13T17:39:45.011Z,13.20
2022-10-13T17:42:33.367Z,13.20
2022-10-13T17:45:20.619Z,13.20
2022-10-13T17:48:08.130Z,13.20
2022-10-13T17:51:00.704Z,13.20
2022-10-13T17:53:48.914Z,13.20
2022-10-13T17:56:36.330Z,13.20
2022-10-13T17:59:23.394Z,13.20
2022-10-13T18:02:10.451Z,13.20
2022-10-13T18:04:58.226Z,13.20
2022-10-13T18:07:45.232Z,13.30
2022-10-13T18:11:03.476Z,13.20
2022-10-13T18:13:41.615Z,13.20
2022-10-13T18:16:28.518Z,13.20
2022-10-13T18:19:15.475Z,13.20
2022-10-13T18:22:03.218Z,13.20
2022-10-13T18:24:54.561Z,13.20
2022-10-13T18:27:43.714Z,13.10
2022-10-13T18:30:32.734Z,13.20
2022-10-13T18:33:19.559Z,13.20
2022-10-13T18:36:14.908Z,13.10
2022-10-13T18:39:04.607Z,13.10
2022-10-13T18:41:52.844Z,13.10
2022-10-13T18:44:39.715Z,13.00
2022-10-13T18:47:26.587Z,13.10
2022-10-13T18:50:13.439Z,13.10
2022-10-13T18:53:00.274Z,13.10
2022-10-13T18:55:47.810Z,13.10
2022-10-13T18:58:34.981Z,13.10
2022-10-13T19:01:23.784Z,13.10
2022-10-13T19:04:13.811Z,13.10
2022-10-13T19:07:00.672Z,13.10
2022-10-13T19:09:47.515Z,13.00
2022-10-13T19:12:35.019Z,13.00
2022-10-13T19:15:21.875Z,13.00
2022-10-13T19:18:10.029Z,13.00
2022-10-13T19:20:59.084Z,13.00
2022-10-13T19:23:46.204Z,13.00
2022-10-13T19:26:38.888Z,12.90
2022-10-13T19:29:26.468Z,13.00
2022-10-13T19:32:13.328Z,13.00
2022-10-13T19:35:00.302Z,13.00
2022-10-13T19:37:47.176Z,13.00
2022-10-13T19:40:36.813Z,13.00
2022-10-13T19:43:25.780Z,13.00
2022-10-13T19:46:13.433Z,13.00
2022-10-13T19:49:00.301Z,13.00
2022-10-13T19:51:48.773Z,13.00
2022-10-13T19:54:36.281Z,13.10
2022-10-13T19:57:23.255Z,13.00
2022-10-13T20:00:11.777Z,13.00
2022-10-13T20:03:01.021Z,13.00
2022-10-13T20:05:47.869Z,13.00
2022-10-13T20:08:34.714Z,13.00
2022-10-13T20:11:24.077Z,12.90
2022-10-13T20:14:11.258Z,12.90
2022-10-13T20:16:58.126Z,12.90
2022-10-13T20:19:45.763Z,13.00
2022-10-13T20:22:33.027Z,12.90
2022-10-13T20:25:20.036Z,12.90
2022-10-13T20:28:06.890Z,12.90
2022-10-13T20:30:53.729Z,12.90
2022-10-13T20:33:41.716Z,13.00
2022-10-13T20:36:29.250Z,12.90
2022-10-13T20:39:16.098Z,12.90
2022-10-13T20:42:03.203Z,12.90
2022-10-13T20:44:50.074Z,12.90
2022-10-13T20:47:36.902Z,13.00
2022-10-13T20:50:23.750Z,13.00
2022-10-13T20:53:11.195Z,12.90
2022-10-13T20:55:58.758Z,12.90
2022-10-13T20:58:46.007Z,13.00
2022-10-13T21:01:33.417Z,12.90
2022-10-13T21:04:20.276Z,12.90
2022-10-13T21:07:07.100Z,13.00
2022-10-13T21:09:54.586Z,12.90
2022-10-13T21:12:41.413Z,12.90
2022-10-13T21:15:28.565Z,12.90
2022-10-13T21:18:15.562Z,12.90
2022-10-13T21:21:04.617Z,12.90
2022-10-13T21:23:52.797Z,12.90
2022-10-13T21:26:40.599Z,12.90
2022-10-13T21:29:33.455Z,12.90
2022-10-13T21:32:20.291Z,12.90
2022-10-13T21:35:07.988Z,12.90
2022-10-13T21:37:54.848Z,12.90
2022-10-13T21:40:41.708Z,12.90
2022-10-13T21:43:29.763Z,12.90
2022-10-13T21:46:18.924Z,12.90
2022-10-13T21:49:06.147Z,12.90
2022-10-13T21:51:54.500Z,12.90
2022-10-13T21:54:41.360Z,12.90
2022-10-13T21:57:28.212Z,12.90
2022-10-13T22:00:16.023Z,12.80
2022-10-13T22:03:02.930Z,12.90
2022-10-13T22:05:49.749Z,12.90
2022-10-13T22:08:38.545Z,12.90
2022-10-13T22:11:35.452Z,12.90
2022-10-13T22:14:29.566Z,12.80
2022-10-13T22:17:17.040Z,12.90
2022-10-13T22:20:04.410Z,12.80
2022-10-13T22:22:51.248Z,12.90
2022-10-13T22:25:43.154Z,12.90
2022-10-13T22:28:36.096Z,12.80
2022-10-13T22:31:24.092Z,12.90
2022-10-13T22:34:13.025Z,12.80
2022-10-13T22:36:59.906Z,12.80
2022-10-13T22:39:47.877Z,12.80
2022-10-13T22:42:34.704Z,12.80
2022-10-13T22:45:21.537Z,12.90
2022-10-13T22:48:10.508Z,12.80
2022-10-13T22:50:57.956Z,12.80
2022-10-13T22:53:49.903Z,12.80
2022-10-13T22:56:36.758Z,12.90
2022-10-13T22:59:26.670Z,12.80
2022-10-13T23:02:13.497Z,12.80
2022-10-13T23:05:00.566Z,12.80
2022-10-13T23:07:49.046Z,12.80
2022-10-13T23:10:36.521Z,12.80
2022-10-13T23:13:23.726Z,12.80
2022-10-13T23:16:13.230Z,12.80
2022-10-13T23:19:02.865Z,12.80
2022-10-13T23:21:49.729Z,12.80
2022-10-13T23:24:37.189Z,12.80
2022-10-13T23:27:24.179Z,12.80
2022-10-13T23:30:12.675Z,12.80
2022-10-13T23:32:59.493Z,12.80
2022-10-13T23:35:53.706Z,12.80
2022-10-13T23:38:40.627Z,12.80
2022-10-13T23:41:28.698Z,12.70
2022-10-13T23:44:15.664Z,12.70
2022-10-13T23:47:02.515Z,12.80
2022-10-13T23:49:49.353Z,12.70
2022-10-13T23:52:36.214Z,12.70
2022-10-13T23:55:23.120Z,12.80
2022-10-13T23:58:10.721Z,12.70
